Time;durP1;ratioP1;P1;durP2;ratioP2;P2;SDS_P1;SDS_P2;PMS_P1;PMS_P2;Temp;Humidity;BMP_temperature;BMP_pressure;BME280_temperature;BME280_humidity;BME280_pressure;Samples;Min_cycle;Max_cycle;Signal;HPM_P1;HPM_P2
2021/03/08 00:01:22;;;;;;;5.72;2.97;;;20.10;27.70;;;;;;5096401;28;20397;-59
2021/03/08 00:03:48;;;;;;;6.47;2.95;;;20.10;27.70;;;;;;5096181;28;20031;-59
2021/03/08 00:06:13;;;;;;;6.13;3.30;;;20.10;27.70;;;;;;5095957;28;20039;-59
2021/03/08 00:08:39;;;;;;;5.63;2.95;;;20.10;27.80;;;;;;5096161;28;20028;-59
2021/03/08 00:11:04;;;;;;;5.63;3.08;;;20.10;27.70;;;;;;5095748;28;20020;-60
2021/03/08 00:13:30;;;;;;;6.35;3.05;;;20.00;27.80;;;;;;5101062;28;20084;-59
2021/03/08 00:15:56;;;;;;;6.40;3.13;;;20.00;27.80;;;;;;5096394;28;20032;-59
2021/03/08 00:18:21;;;;;;;5.32;3.00;;;20.00;27.80;;;;;;5095436;28;20051;-59
2021/03/08 00:20:47;;;;;;;5.43;2.90;;;20.00;27.80;;;;;;5095845;28;20395;-59
2021/03/08 00:23:12;;;;;;;5.63;2.92;;;20.00;27.80;;;;;;5095617;28;20073;-59
2021/03/08 00:25:38;;;;;;;6.35;3.15;;;20.00;27.80;;;;;;5095408;28;20095;-60
2021/03/08 00:28:04;;;;;;;6.13;3.20;;;20.00;27.90;;;;;;5095404;28;20032;-60
2021/03/08 00:30:29;;;;;;;6.18;3.13;;;20.00;27.90;;;;;;5095159;28;20500;-59
2021/03/08 00:32:56;;;;;;;7.30;4.00;;;19.90;27.90;;;;;;5095568;28;20027;-59
2021/03/08 00:35:21;;;;;;;4.97;2.78;;;20.00;27.90;;;;;;5095418;28;20039;-59
2021/03/08 00:37:47;;;;;;;6.63;2.95;;;19.90;27.90;;;;;;5095630;28;20165;-59
2021/03/08 00:40:16;;;;;;;4.60;2.70;;;19.90;27.90;;;;;;5095346;28;20376;-59
2021/03/08 00:42:43;;;;;;;7.47;3.50;;;19.90;27.90;;;;;;5095080;28;20032;-59
2021/03/08 00:45:11;;;;;;;5.85;3.28;;;19.90;27.90;;;;;;5095348;28;20024;-59
2021/03/08 00:47:36;;;;;;;5.80;3.03;;;19.90;27.90;;;;;;5094947;28;20419;-60
2021/03/08 00:50:05;;;;;;;5.55;2.92;;;19.90;27.90;;;;;;5095131;28;20024;-59
2021/03/08 00:52:31;;;;;;;6.22;3.33;;;19.90;27.90;;;;;;5095061;28;20027;-59
2021/03/08 00:54:56;;;;;;;5.93;3.22;;;19.90;27.90;;;;;;5095482;28;20032;-59
2021/03/08 00:57:22;;;;;;;5.30;2.85;;;19.90;27.90;;;;;;5101364;28;20038;-60
2021/03/08 00:59:47;;;;;;;6.10;3.20;;;19.90;28.00;;;;;;5095279;28;20032;-60
2021/03/08 01:02:13;;;;;;;5.97;3.05;;;19.90;28.00;;;;;;5094567;28;20070;-59
2021/03/08 01:04:39;;;;;;;6.07;3.13;;;19.80;28.00;;;;;;5094674;28;20028;-59
2021/03/08 01:07:04;;;;;;;5.57;3.00;;;19.80;28.00;;;;;;5094437;28;20126;-60
2021/03/08 01:09:30;;;;;;;5.18;2.97;;;19.80;28.00;;;;;;5094517;28;20023;-60
2021/03/08 01:11:56;;;;;;;5.80;3.30;;;19.80;28.00;;;;;;5094486;28;20028;-60
2021/03/08 01:14:22;;;;;;;5.68;3.35;;;19.80;28.00;;;;;;5094457;28;20024;-60
2021/03/08 01:16:47;;;;;;;6.32;3.53;;;19.90;28.00;;;;;;5094378;28;20016;-59
2021/03/08 01:19:13;;;;;;;8.52;3.42;;;19.80;28.00;;;;;;5094284;28;20044;-59
2021/03/08 01:21:38;;;;;;;6.07;3.60;;;19.80;28.00;;;;;;5094361;28;20024;-59
2021/03/08 01:24:05;;;;;;;7.18;3.88;;;19.80;28.00;;;;;;5094232;28;20081;-59
2021/03/08 01:26:30;;;;;;;6.43;3.13;;;19.80;28.00;;;;;;5094324;28;20036;-60
2021/03/08 01:28:56;;;;;;;5.55;3.15;;;19.80;28.00;;;;;;5093963;28;20039;-59
2021/03/08 01:31:21;;;;;;;8.10;3.65;;;19.80;28.10;;;;;;5092487;28;20031;-60
2021/03/08 01:33:51;;;;;;;6.10;3.40;;;19.80;28.10;;;;;;5093657;28;20073;-59
2021/03/08 01:36:17;;;;;;;6.07;3.25;;;19.70;28.10;;;;;;5094043;28;20085;-59
2021/03/08 01:38:42;;;;;;;6.53;3.60;;;19.80;28.10;;;;;;5094060;28;20027;-59
2021/03/08 01:41:08;;;;;;;5.93;3.10;;;19.70;28.10;;;;;;5094331;28;20020;-59
2021/03/08 01:43:33;;;;;;;6.57;3.40;;;19.70;28.10;;;;;;5094123;28;20032;-59
2021/03/08 01:45:59;;;;;;;7.05;3.78;;;19.70;28.10;;;;;;5094042;28;20032;-60
2021/03/08 01:48:25;;;;;;;6.50;3.72;;;19.70;28.10;;;;;;5093907;28;20027;-59
2021/03/08 01:50:50;;;;;;;5.32;3.22;;;19.70;28.20;;;;;;5093869;28;20020;-59
2021/03/08 01:53:18;;;;;;;7.13;3.28;;;19.70;28.20;;;;;;5093699;28;20024;-59
2021/03/08 01:55:45;;;;;;;6.95;3.63;;;19.70;28.20;;;;;;5092535;28;20173;-59
2021/03/08 01:58:11;;;;;;;6.60;3.55;;;19.70;28.20;;;;;;5093870;28;20465;-59
2021/03/08 02:00:37;;;;;;;7.50;4.03;;;19.60;28.20;;;;;;5093787;28;20028;-59
2021/03/08 02:03:03;;;;;;;6.70;3.83;;;19.70;28.20;;;;;;5093869;28;20056;-59
2021/03/08 02:05:35;;;;;;;6.68;3.88;;;19.60;28.20;;;;;;5093626;28;20024;-59
2021/03/08 02:08:03;;;;;;;6.90;3.75;;;19.60;28.20;;;;;;5092018;28;20501;-59
2021/03/08 02:10:31;;;;;;;6.82;3.80;;;19.60;28.20;;;;;;5093478;28;20017;-59
2021/03/08 02:13:14;;;;;;;6.53;3.42;;;19.60;28.30;;;;;;5093645;28;20016;-59
2021/03/08 02:15:49;;;;;;;7.03;3.50;;;19.60;28.30;;;;;;5093731;28;20024;-60
2021/03/08 02:18:33;;;;;;;6.65;3.75;;;19.60;28.30;;;;;;5093374;28;20047;-60
2021/03/08 02:21:36;;;;;;;6.22;3.65;;;19.60;28.30;;;;;;5093749;28;20023;-60
2021/03/08 02:24:26;;;;;;;7.13;3.83;;;19.60;28.20;;;;;;5093476;28;20028;-60
2021/03/08 02:27:03;;;;;;;6.47;3.60;;;19.60;28.30;;;;;;5093675;28;20342;-60
2021/03/08 02:29:50;;;;;;;5.57;3.10;;;19.60;28.30;;;;;;5092208;28;20027;-60
2021/03/08 02:32:21;;;;;;;7.55;3.78;;;19.60;28.30;;;;;;5093812;28;20012;-60
2021/03/08 02:34:56;;;;;;;7.43;3.83;;;19.60;28.30;;;;;;5097177;28;20482;-58
2021/03/08 02:37:26;;;;;;;7.40;3.75;;;19.50;28.40;;;;;;5097520;28;20560;-59
2021/03/08 02:39:58;;;;;;;6.22;3.95;;;19.60;28.30;;;;;;5097130;28;20012;-59
2021/03/08 02:42:29;;;;;;;9.27;3.83;;;19.50;28.30;;;;;;5097091;28;20032;-59
2021/03/08 02:44:58;;;;;;;6.53;3.50;;;19.50;28.40;;;;;;5097528;28;20031;-59
2021/03/08 02:47:26;;;;;;;6.72;3.38;;;19.50;28.40;;;;;;5097437;28;20032;-59
2021/03/08 02:49:55;;;;;;;8.55;3.78;;;19.50;28.40;;;;;;5097317;28;20030;-59
2021/03/08 02:52:22;;;;;;;7.57;4.10;;;19.50;28.40;;;;;;5097121;28;20028;-60
2021/03/08 02:54:52;;;;;;;6.65;3.55;;;19.50;28.40;;;;;;5095482;28;20020;-60
2021/03/08 02:57:23;;;;;;;6.25;3.70;;;19.50;28.40;;;;;;5096892;28;20529;-59
2021/03/08 02:59:50;;;;;;;5.85;3.38;;;19.50;28.50;;;;;;5097739;28;20027;-62
2021/03/08 03:02:17;;;;;;;6.20;3.60;;;19.50;28.50;;;;;;5097195;28;20361;-59
2021/03/08 03:04:44;;;;;;;6.78;3.78;;;19.50;28.50;;;;;;5097117;28;20066;-59
2021/03/08 03:07:11;;;;;;;6.30;3.58;;;19.50;28.50;;;;;;5097155;28;20028;-59
2021/03/08 03:09:39;;;;;;;6.70;3.50;;;19.50;28.50;;;;;;5097043;28;20073;-60
2021/03/08 03:12:06;;;;;;;7.38;4.13;;;19.50;28.50;;;;;;5095669;28;20024;-59
2021/03/08 03:14:34;;;;;;;6.35;3.58;;;19.50;28.50;;;;;;5096926;28;20020;-59
2021/03/08 03:17:08;;;;;;;6.88;4.10;;;19.50;28.60;;;;;;5096983;28;20024;-59
2021/03/08 03:19:35;;;;;;;;;;;19.50;28.50;;;;;;5097413;28;20060;-60
2021/03/08 03:22:02;;;;;;;8.25;3.92;;;19.50;28.50;;;;;;5096839;28;19911;-59
2021/03/08 03:24:30;;;;;;;7.43;3.92;;;19.50;28.60;;;;;;5097066;28;20070;-59
2021/03/08 03:26:57;;;;;;;6.68;3.88;;;19.50;28.60;;;;;;5096438;28;20043;-59
2021/03/08 03:29:24;;;;;;;7.22;4.18;;;19.50;28.60;;;;;;5096866;28;20099;-59
2021/03/08 03:31:50;;;;;;;7.20;4.20;;;19.50;28.60;;;;;;5097077;28;20039;-59
2021/03/08 03:34:19;;;;;;;7.10;4.20;;;19.50;28.60;;;;;;5096353;28;20348;-59
2021/03/08 03:36:48;;;;;;;6.45;3.97;;;19.50;28.60;;;;;;5096834;28;20430;-59
2021/03/08 03:39:14;;;;;;;7.75;4.25;;;19.50;28.60;;;;;;5096468;28;20016;-59
2021/03/08 03:41:40;;;;;;;7.85;4.60;;;19.50;28.60;;;;;;5096051;28;20024;-60
2021/03/08 03:44:08;;;;;;;7.05;4.05;;;19.40;28.60;;;;;;5095052;28;20058;-59
2021/03/08 03:46:40;;;;;;;6.30;3.38;;;19.40;28.60;;;;;;5095598;28;20036;-60
2021/03/08 03:49:06;;;;;;;8.32;4.57;;;19.40;28.60;;;;;;5096017;28;20024;-59
2021/03/08 03:51:31;;;;;;;8.70;4.07;;;19.40;28.70;;;;;;5096391;28;20028;-59
2021/03/08 03:53:57;;;;;;;7.15;3.78;;;19.40;28.70;;;;;;5096195;28;20051;-59
2021/03/08 03:56:27;;;;;;;8.23;4.68;;;19.40;28.70;;;;;;5096068;28;20383;-59
2021/03/08 03:58:58;;;;;;;6.47;3.75;;;19.40;28.70;;;;;;5096278;28;20024;-60
2021/03/08 04:01:30;;;;;;;8.02;4.50;;;19.40;28.70;;;;;;5096320;28;20020;-59
2021/03/08 04:04:00;;;;;;;7.25;4.22;;;19.40;28.70;;;;;;5096217;28;20028;-60
2021/03/08 04:06:40;;;;;;;8.32;4.07;;;19.40;28.70;;;;;;5095836;28;20028;-59
2021/03/08 04:09:08;;;;;;;8.10;4.05;;;19.40;28.80;;;;;;5096391;28;20024;-60
2021/03/08 04:11:37;;;;;;;7.90;4.38;;;19.40;28.70;;;;;;5096395;28;20460;-59
2021/03/08 04:14:04;;;;;;;7.00;4.15;;;19.40;28.70;;;;;;5096076;28;20059;-58
2021/03/08 04:16:31;;;;;;;6.15;3.78;;;19.30;28.80;;;;;;5094823;28;20016;-58
2021/03/08 04:18:58;;;;;;;6.20;3.85;;;19.30;28.70;;;;;;5095974;28;20133;-58
2021/03/08 04:21:25;;;;;;;7.28;4.20;;;19.30;28.80;;;;;;5095979;28;20483;-58
2021/03/08 04:23:52;;;;;;;7.35;3.85;;;19.30;28.70;;;;;;5095803;28;20400;-58
2021/03/08 04:26:19;;;;;;;6.85;4.15;;;19.30;28.80;;;;;;5095477;28;20466;-59
2021/03/08 04:28:46;;;;;;;7.28;4.13;;;19.30;28.80;;;;;;5096297;28;20046;-59
2021/03/08 04:31:12;;;;;;;7.30;4.05;;;19.40;28.80;;;;;;5096457;28;20032;-59
2021/03/08 04:33:38;;;;;;;7.88;4.05;;;19.30;28.90;;;;;;5101521;28;20027;-59
2021/03/08 04:36:05;;;;;;;8.55;3.90;;;19.30;28.80;;;;;;5094220;28;20032;-59
2021/03/08 04:38:31;;;;;;;7.78;3.85;;;19.30;28.80;;;;;;5095233;28;20064;-58
2021/03/08 04:40:57;;;;;;;8.05;4.18;;;19.30;28.80;;;;;;5095042;28;20379;-59
2021/03/08 04:43:24;;;;;;;6.28;3.72;;;19.30;28.80;;;;;;5093837;28;20089;-59
2021/03/08 04:45:54;;;;;;;6.53;3.83;;;19.30;28.80;;;;;;5095153;28;20031;-58
2021/03/08 04:48:20;;;;;;;7.38;3.85;;;19.30;28.80;;;;;;5095105;28;20024;-59
2021/03/08 04:50:48;;;;;;;6.28;3.60;;;19.30;28.80;;;;;;5095037;28;20032;-59
2021/03/08 04:53:14;;;;;;;6.85;3.58;;;19.30;28.90;;;;;;5094739;28;20140;-59
2021/03/08 04:55:41;;;;;;;6.82;3.95;;;19.30;28.80;;;;;;5094291;28;20028;-59
2021/03/08 04:58:06;;;;;;;7.50;3.80;;;19.30;28.90;;;;;;5094527;28;20032;-59
2021/03/08 05:00:33;;;;;;;6.80;3.75;;;19.30;28.90;;;;;;5094949;28;20464;-59
2021/03/08 05:03:00;;;;;;;7.13;3.95;;;19.30;28.90;;;;;;5094852;28;20035;-59
2021/03/08 05:05:26;;;;;;;7.70;4.38;;;19.30;28.90;;;;;;5094700;28;20026;-59
2021/03/08 05:08:05;;;;;;;6.60;3.80;;;19.30;28.90;;;;;;5094308;28;20036;-59
2021/03/08 05:10:33;;;;;;;7.32;4.22;;;19.30;28.90;;;;;;5094684;28;20031;-60
2021/03/08 05:13:00;;;;;;;7.38;3.90;;;19.30;28.90;;;;;;5093016;28;20032;-60
2021/03/08 05:15:27;;;;;;;8.70;3.92;;;19.30;28.80;;;;;;5094492;28;20041;-61
2021/03/08 05:17:56;;;;;;;8.10;3.88;;;19.40;28.80;;;;;;5096320;28;20083;-59
2021/03/08 05:20:23;;;;;;;7.18;3.75;;;19.40;28.80;;;;;;5094526;28;20078;-60
2021/03/08 05:22:49;;;;;;;7.47;3.83;;;19.40;28.80;;;;;;5094121;28;20487;-59
2021/03/08 05:25:15;;;;;;;5.75;3.30;;;19.50;28.70;;;;;;5094349;28;20504;-59
2021/03/08 05:27:43;;;;;;;6.32;3.55;;;19.50;28.70;;;;;;5094251;28;20484;-59
2021/03/08 05:30:13;;;;;;;6.65;3.80;;;19.50;28.70;;;;;;5094730;28;20028;-59
2021/03/08 05:32:53;;;;;;;5.72;3.28;;;19.50;28.70;;;;;;5094350;28;20032;-59
2021/03/08 05:35:20;;;;;;;6.10;3.28;;;19.50;28.70;;;;;;5093970;28;20494;-59
2021/03/08 05:37:46;;;;;;;7.18;3.72;;;19.60;28.60;;;;;;5094144;28;20012;-60
2021/03/08 05:40:23;;;;;;;6.32;3.20;;;19.60;28.70;;;;;;5094309;28;20024;-60
2021/03/08 05:43:03;;;;;;;6.28;3.20;;;19.60;28.60;;;;;;5093762;28;20056;-59
2021/03/08 05:45:33;;;;;;;6.80;3.40;;;19.70;28.60;;;;;;5092242;28;20048;-60
2021/03/08 05:48:13;;;;;;;6.85;3.63;;;19.70;28.60;;;;;;5093981;28;20476;-59
2021/03/08 05:51:19;;;;;;;6.25;3.03;;;19.70;28.60;;;;;;5094100;28;20077;-60
2021/03/08 05:54:08;;;;;;;7.03;3.30;;;19.80;28.60;;;;;;5094026;28;20026;-59
2021/03/08 05:56:56;;;;;;;7.05;3.60;;;19.80;28.60;;;;;;5094041;28;20020;-59
2021/03/08 05:59:57;;;;;;;6.72;3.78;;;19.80;28.60;;;;;;5094464;28;20018;-59
2021/03/08 06:02:55;;;;;;;7.95;3.90;;;19.80;28.60;;;;;;5083100;28;20032;-59
2021/03/08 06:05:43;;;;;;;6.63;3.50;;;19.90;28.60;;;;;;5074092;28;20483;-59
2021/03/08 06:08:26;;;;;;;6.22;3.55;;;19.90;28.60;;;;;;5094524;28;20437;-58
2021/03/08 06:11:01;;;;;;;5.87;3.10;;;19.90;28.60;;;;;;5098129;28;20074;-59
2021/03/08 06:13:30;;;;;;;6.60;3.42;;;20.00;28.60;;;;;;5098593;28;20020;-58
2021/03/08 06:16:00;;;;;;;5.63;3.28;;;20.00;28.60;;;;;;5098060;28;20039;-61
2021/03/08 06:18:32;;;;;;;7.13;3.13;;;20.00;28.60;;;;;;5098006;28;20522;-60
2021/03/08 06:21:00;;;;;;;8.00;3.40;;;20.00;28.60;;;;;;5097856;28;20546;-60
2021/03/08 06:23:27;;;;;;;6.43;3.17;;;20.00;28.60;;;;;;5097650;28;20487;-59
2021/03/08 06:25:55;;;;;;;6.32;3.22;;;20.00;28.60;;;;;;5097854;28;20122;-59
2021/03/08 06:28:22;;;;;;;7.25;3.33;;;20.10;28.60;;;;;;5097918;28;20031;-60
2021/03/08 06:30:49;;;;;;;6.47;3.60;;;20.10;28.60;;;;;;5097820;28;20026;-59
2021/03/08 06:33:15;;;;;;;5.88;3.17;;;20.10;28.60;;;;;;5097400;28;20032;-59
2021/03/08 06:35:41;;;;;;;5.43;3.20;;;20.10;28.60;;;;;;5097087;28;20021;-59
2021/03/08 06:38:08;;;;;;;6.95;3.67;;;20.10;28.60;;;;;;5097397;28;20032;-59
2021/03/08 06:40:34;;;;;;;7.05;3.55;;;20.10;28.60;;;;;;5096349;28;20020;-59
2021/03/08 06:42:59;;;;;;;7.15;3.42;;;20.20;28.60;;;;;;5097177;28;20028;-59
2021/03/08 06:45:25;;;;;;;5.53;2.75;;;20.20;28.60;;;;;;5097087;28;20051;-59
2021/03/08 06:47:51;;;;;;;6.60;3.47;;;20.20;28.60;;;;;;5097035;28;20089;-60
2021/03/08 06:50:17;;;;;;;6.88;3.55;;;20.20;28.60;;;;;;5097269;28;20020;-60
2021/03/08 06:52:43;;;;;;;6.07;2.85;;;20.20;28.60;;;;;;5096977;28;20031;-59
2021/03/08 06:55:10;;;;;;;6.75;3.70;;;20.20;28.60;;;;;;5096986;28;20467;-60
2021/03/08 06:57:38;;;;;;;6.50;3.55;;;20.20;28.60;;;;;;5096838;28;20076;-60
2021/03/08 07:00:08;;;;;;;5.25;3.10;;;20.30;28.60;;;;;;5095883;28;20115;-60
2021/03/08 07:02:42;;;;;;;6.53;3.30;;;20.30;28.60;;;;;;5096947;28;20059;-60
2021/03/08 07:05:13;;;;;;;7.13;4.18;;;20.30;28.60;;;;;;5096808;28;20379;-60
2021/03/08 07:07:59;;;;;;;7.15;3.30;;;20.30;28.60;;;;;;5096679;28;20047;-60
2021/03/08 07:10:35;;;;;;;6.25;3.60;;;20.40;28.60;;;;;;5096869;28;20024;-60
2021/03/08 07:13:02;;;;;;;5.60;2.95;;;20.40;28.60;;;;;;5096331;28;20032;-60
2021/03/08 07:15:27;;;;;;;6.20;3.35;;;20.30;28.70;;;;;;5096661;28;20016;-60
2021/03/08 07:17:53;;;;;;;7.20;3.20;;;20.40;28.70;;;;;;5096436;28;20044;-60
2021/03/08 07:20:19;;;;;;;6.25;3.10;;;20.40;28.70;;;;;;5096515;28;20063;-60
2021/03/08 07:22:47;;;;;;;6.40;3.50;;;20.40;28.70;;;;;;5096527;28;20066;-60
2021/03/08 07:25:31;;;;;;;7.63;3.60;;;20.40;28.60;;;;;;5095915;28;20059;-60
2021/03/08 07:28:05;;;;;;;7.90;4.03;;;20.40;28.90;;;;;;5085199;28;20539;-60
2021/03/08 07:30:39;;;;;;;7.35;3.50;;;20.40;28.90;;;;;;5078422;28;20043;-60
2021/03/08 07:33:06;;;;;;;;;;;20.40;28.90;;;;;;5084487;28;20035;-60
2021/03/08 07:35:44;;;;;;;7.10;4.13;;;20.40;29.10;;;;;;5091406;28;19908;-59
2021/03/08 07:38:12;;;;;;;6.10;3.70;;;20.40;29.10;;;;;;5074565;28;20032;-60
2021/03/08 07:40:40;;;;;;;7.30;3.95;;;20.40;29.10;;;;;;5094418;28;20028;-60
2021/03/08 07:43:06;;;;;;;7.32;3.25;;;20.40;29.10;;;;;;5095217;28;20055;-60
2021/03/08 07:45:39;;;;;;;7.88;3.28;;;20.50;29.10;;;;;;5081950;28;20020;-59
2021/03/08 07:48:18;;;;;;;7.30;3.10;;;20.50;29.30;;;;;;5093526;28;20068;-59
2021/03/08 07:50:46;;;;;;;5.20;2.95;;;20.50;29.20;;;;;;5082381;28;20038;-60
2021/03/08 07:53:31;;;;;;;5.97;3.28;;;20.50;29.20;;;;;;5094054;28;20674;-59
2021/03/08 07:56:05;;;;;;;6.85;3.08;;;20.50;29.20;;;;;;5092223;28;20069;-60
2021/03/08 07:58:35;;;;;;;4.90;3.00;;;20.60;29.20;;;;;;5093281;28;20043;-60
2021/03/08 08:01:06;;;;;;;5.28;3.35;;;20.60;29.30;;;;;;5093510;28;20073;-59
2021/03/08 08:03:33;;;;;;;10.52;3.78;;;20.60;29.30;;;;;;5074569;28;20020;-59
2021/03/08 08:06:09;;;;;;;6.63;3.25;;;20.60;29.30;;;;;;5074247;28;20032;-60
2021/03/08 08:08:38;;;;;;;6.55;3.03;;;20.60;29.30;;;;;;5083945;28;20520;-60
2021/03/08 08:11:05;;;;;;;6.93;3.30;;;20.60;29.40;;;;;;5080300;28;20031;-60
2021/03/08 08:13:57;;;;;;;7.43;2.90;;;20.60;29.40;;;;;;5094577;28;20055;-60
2021/03/08 08:16:25;;;;;;;6.93;3.45;;;20.70;29.40;;;;;;5085293;28;20047;-59
2021/03/08 08:18:56;;;;;;;5.25;3.10;;;20.70;29.40;;;;;;5089714;28;20040;-60
2021/03/08 08:21:23;;;;;;;6.25;3.00;;;20.70;29.40;;;;;;5085008;28;20056;-60
2021/03/08 08:23:57;;;;;;;6.07;3.17;;;20.70;29.40;;;;;;5074195;28;20021;-60
2021/03/08 08:26:24;;;;;;;6.28;3.33;;;20.80;29.40;;;;;;5079590;28;20492;-61
2021/03/08 08:28:50;;;;;;;6.80;3.40;;;20.70;29.40;;;;;;5073690;28;20032;-59
2021/03/08 08:31:16;;;;;;;6.57;2.85;;;20.70;29.40;;;;;;5072774;28;20086;-60
2021/03/08 08:33:42;;;;;;;5.30;2.85;;;20.70;29.40;;;;;;5081576;28;20027;-60
2021/03/08 08:36:20;;;;;;;6.72;3.17;;;20.70;29.50;;;;;;5093771;28;20032;-60
2021/03/08 08:38:51;;;;;;;7.32;3.38;;;20.80;29.60;;;;;;5093879;28;20436;-59
2021/03/08 08:41:23;;;;;;;6.05;2.85;;;20.80;29.50;;;;;;5073795;28;20032;-60
2021/03/08 08:44:09;;;;;;;7.47;3.30;;;20.80;29.60;;;;;;5090074;28;20028;-60
2021/03/08 08:46:39;;;;;;;6.60;3.20;;;20.80;29.60;;;;;;5079112;28;20052;-60
2021/03/08 08:49:09;;;;;;;5.38;2.90;;;20.80;29.60;;;;;;5076794;28;20039;-60
2021/03/08 08:51:54;;;;;;;8.95;3.50;;;20.80;29.60;;;;;;5078356;28;20029;-60
2021/03/08 08:54:28;;;;;;;6.38;3.08;;;20.80;29.60;;;;;;5073471;28;20037;-59
2021/03/08 08:57:01;;;;;;;6.65;3.38;;;20.80;29.60;;;;;;5084881;28;20024;-60
2021/03/08 08:59:27;;;;;;;5.97;3.00;;;20.80;29.60;;;;;;5093184;28;20475;-60
2021/03/08 09:02:21;;;;;;;8.02;4.15;;;20.90;29.60;;;;;;5093614;28;20035;-60
2021/03/08 09:04:46;;;;;;;8.03;3.97;;;20.80;29.60;;;;;;5093529;28;20379;-60
2021/03/08 09:07:27;;;;;;;8.18;3.80;;;20.80;29.80;;;;;;5093870;28;20290;-60
2021/03/08 09:09:53;;;;;;;8.30;3.58;;;20.80;29.80;;;;;;5093588;28;20027;-60
2021/03/08 09:12:40;;;;;;;8.13;3.90;;;20.80;29.80;;;;;;5093476;28;20024;-61
2021/03/08 09:15:11;;;;;;;7.07;3.00;;;20.90;29.80;;;;;;5093597;28;20028;-60
2021/03/08 09:17:43;;;;;;;6.22;3.45;;;20.90;29.70;;;;;;5093519;28;20040;-60
2021/03/08 09:20:08;;;;;;;7.35;3.13;;;20.90;29.70;;;;;;5093085;28;20055;-60
2021/03/08 09:22:42;;;;;;;6.32;3.13;;;20.90;29.70;;;;;;5093253;28;20495;-60
2021/03/08 09:25:08;;;;;;;7.05;3.28;;;20.90;29.70;;;;;;5072796;28;20024;-60
2021/03/08 09:28:01;;;;;;;9.40;3.60;;;20.90;29.70;;;;;;5072776;28;20048;-60
2021/03/08 09:30:32;;;;;;;6.85;3.20;;;20.90;29.70;;;;;;5067648;28;20029;-60
2021/03/08 09:33:07;;;;;;;7.15;3.72;;;20.90;29.70;;;;;;5073192;28;20029;-60
2021/03/08 09:35:34;;;;;;;7.05;3.05;;;20.90;29.70;;;;;;5073865;28;20024;-60
2021/03/08 09:38:02;;;;;;;8.80;4.00;;;21.00;29.70;;;;;;5072815;28;20051;-60
2021/03/08 09:40:35;;;;;;;6.25;3.25;;;21.00;29.70;;;;;;5072811;28;20043;-59
2021/03/08 09:43:01;;;;;;;6.05;2.90;;;21.00;29.70;;;;;;5072795;28;20017;-60
2021/03/08 09:45:33;;;;;;;6.88;3.60;;;21.00;29.70;;;;;;5072729;28;20029;-60
2021/03/08 09:48:00;;;;;;;6.05;2.85;;;21.00;29.60;;;;;;5072527;28;20059;-60
2021/03/08 09:50:31;;;;;;;7.43;3.40;;;21.00;29.70;;;;;;5073117;28;20021;-59
2021/03/08 09:52:57;;;;;;;6.57;3.40;;;21.00;29.70;;;;;;5072936;28;20036;-59
2021/03/08 09:55:34;;;;;;;6.82;3.45;;;21.00;29.70;;;;;;5072894;28;20385;-60
2021/03/08 09:58:11;;;;;;;9.32;3.40;;;21.00;29.60;;;;;;5073478;28;20028;-59
2021/03/08 10:00:37;;;;;;;7.90;3.70;;;21.00;29.60;;;;;;5073242;28;20021;-60
2021/03/08 10:03:05;;;;;;;6.03;3.13;;;21.00;29.60;;;;;;5078377;28;20046;-60
2021/03/08 10:06:00;;;;;;;7.70;3.72;;;21.00;29.60;;;;;;5073689;28;20060;-59
2021/03/08 10:08:30;;;;;;;7.25;3.35;;;21.10;29.70;;;;;;5075804;28;20186;-60
2021/03/08 10:10:56;;;;;;;7.22;3.50;;;21.10;29.70;;;;;;5093397;28;20020;-59
2021/03/08 10:13:23;;;;;;;6.32;3.28;;;21.10;29.70;;;;;;5092114;28;20024;-59
2021/03/08 10:15:54;;;;;;;7.25;3.70;;;21.10;29.70;;;;;;5093235;28;20130;-59
2021/03/08 10:18:30;;;;;;;6.93;3.65;;;21.10;29.70;;;;;;5073173;28;20395;-59
2021/03/08 10:20:58;;;;;;;6.65;3.25;;;21.10;29.70;;;;;;5078110;28;20240;-59
2021/03/08 10:23:25;;;;;;;6.50;3.60;;;21.10;29.70;;;;;;5092732;28;20387;-59
2021/03/08 10:25:52;;;;;;;7.35;4.15;;;21.10;29.70;;;;;;5092716;28;20024;-59
2021/03/08 10:28:18;;;;;;;7.97;3.78;;;21.10;29.70;;;;;;5093126;28;20093;-60
2021/03/08 10:30:44;;;;;;;6.65;3.40;;;21.10;29.70;;;;;;5093458;28;20446;-59
2021/03/08 10:33:13;;;;;;;7.35;3.35;;;21.10;29.70;;;;;;5092726;28;20035;-59
2021/03/08 10:35:45;;;;;;;6.47;3.13;;;21.20;29.70;;;;;;5089003;28;20016;-60
2021/03/08 10:38:12;;;;;;;7.32;3.75;;;21.20;29.70;;;;;;5085390;28;20369;-59
2021/03/08 10:40:39;;;;;;;6.68;3.45;;;21.20;29.80;;;;;;5082392;28;20020;-59
2021/03/08 10:43:05;;;;;;;5.63;3.20;;;21.20;29.80;;;;;;5077433;28;20349;-60
2021/03/08 10:45:31;;;;;;;6.53;3.38;;;21.20;29.70;;;;;;5079048;28;20441;-60
2021/03/08 10:48:05;;;;;;;6.68;3.60;;;21.20;29.70;;;;;;5078462;28;20122;-60
2021/03/08 10:50:58;;;;;;;6.22;3.13;;;21.20;29.80;;;;;;5077857;28;20387;-60
2021/03/08 10:53:24;;;;;;;7.10;3.17;;;21.20;29.90;;;;;;5078036;28;20504;-60
2021/03/08 10:55:51;;;;;;;7.63;3.33;;;21.30;29.90;;;;;;5091250;28;20502;-59
2021/03/08 10:58:31;;;;;;;7.75;3.50;;;21.30;30.00;;;;;;5102983;28;20027;-60
2021/03/08 11:01:08;;;;;;;7.38;3.67;;;21.30;30.00;;;;;;5083457;28;20048;-60
2021/03/08 11:03:38;;;;;;;6.25;3.20;;;21.40;29.80;;;;;;5084926;28;20051;-60
2021/03/08 11:06:23;;;;;;;6.78;3.33;;;21.50;29.70;;;;;;5095354;28;20024;-60
2021/03/08 11:09:04;;;;;;;6.18;3.20;;;21.50;29.70;;;;;;5095036;28;20028;-60
2021/03/08 11:11:32;;;;;;;6.93;3.28;;;21.60;29.60;;;;;;5087539;28;20031;-60
2021/03/08 11:14:02;;;;;;;5.50;3.10;;;21.60;29.60;;;;;;5109963;28;20070;-60
2021/03/08 11:16:29;;;;;;;5.95;3.28;;;21.70;29.50;;;;;;5080697;28;20436;-61
2021/03/08 11:19:13;;;;;;;10.02;3.05;;;21.70;29.50;;;;;;5087758;28;20083;-60
2021/03/08 11:21:39;;;;;;;7.03;3.35;;;21.70;29.50;;;;;;5088583;28;20385;-60
2021/03/08 11:24:15;;;;;;;7.47;3.17;;;21.80;29.50;;;;;;5086104;28;20114;-60
2021/03/08 11:26:41;;;;;;;5.22;2.80;;;21.80;29.40;;;;;;5090697;28;20040;-60
2021/03/08 11:29:22;;;;;;;7.15;3.35;;;21.90;29.40;;;;;;5093287;28;20060;-60
2021/03/08 11:31:54;;;;;;;6.68;3.20;;;21.90;29.40;;;;;;5087781;28;20495;-61
2021/03/08 11:34:44;;;;;;;6.72;3.42;;;21.90;29.40;;;;;;5096100;28;20036;-60
2021/03/08 11:37:17;;;;;;;7.32;3.30;;;21.90;29.50;;;;;;5075117;28;20037;-60
2021/03/08 11:39:44;;;;;;;6.00;3.08;;;21.90;29.40;;;;;;5090403;28;20063;-60
2021/03/08 11:42:11;;;;;;;7.75;3.45;;;21.90;29.40;;;;;;5091593;28;20016;-60
2021/03/08 11:44:37;;;;;;;4.85;2.83;;;21.90;29.50;;;;;;5079969;28;20467;-60
2021/03/08 11:47:04;;;;;;;8.20;3.70;;;22.00;29.40;;;;;;5094619;28;20093;-60
2021/03/08 11:49:29;;;;;;;6.15;3.08;;;22.00;29.50;;;;;;5090672;28;20055;-61
2021/03/08 11:51:55;;;;;;;6.03;2.70;;;22.00;29.50;;;;;;5080358;28;20068;-61
2021/03/08 11:54:20;;;;;;;5.78;3.00;;;22.00;29.50;;;;;;5092686;28;20054;-60
2021/03/08 11:56:46;;;;;;;7.05;3.13;;;22.00;29.40;;;;;;5094031;28;20024;-60
2021/03/08 11:59:12;;;;;;;8.27;3.15;;;22.00;29.50;;;;;;5078119;28;20032;-62
2021/03/08 12:01:38;;;;;;;5.97;3.17;;;22.00;29.50;;;;;;5082664;28;20376;-61
2021/03/08 12:04:03;;;;;;;7.05;3.47;;;22.00;29.60;;;;;;5092960;28;20039;-61
2021/03/08 12:06:29;;;;;;;5.65;3.13;;;22.00;29.50;;;;;;5093418;28;20388;-61
2021/03/08 12:08:55;;;;;;;7.13;3.05;;;22.00;29.60;;;;;;5094357;28;20028;-61
2021/03/08 12:11:20;;;;;;;6.15;3.50;;;21.80;30.00;;;;;;5094622;28;20657;-61
2021/03/08 12:13:46;;;;;;;8.30;4.03;;;21.70;30.00;;;;;;5093388;28;20020;-61
2021/03/08 12:16:11;;;;;;;7.35;3.53;;;21.70;30.00;;;;;;5092519;28;20036;-62
2021/03/08 12:18:37;;;;;;;6.68;3.22;;;21.60;30.10;;;;;;5092381;28;20063;-61
2021/03/08 12:21:03;;;;;;;7.07;3.33;;;21.50;30.30;;;;;;5094089;28;20024;-62
2021/03/08 12:23:28;;;;;;;6.07;3.13;;;21.50;30.30;;;;;;5093615;28;20562;-62
2021/03/08 12:25:54;;;;;;;5.97;3.00;;;21.60;30.10;;;;;;5079738;28;20021;-61
2021/03/08 12:28:20;;;;;;;9.48;3.20;;;21.80;30.00;;;;;;5078385;28;20040;-62
2021/03/08 12:30:46;;;;;;;6.78;2.90;;;21.80;29.90;;;;;;5077987;28;20547;-62
2021/03/08 12:33:11;;;;;;;7.65;3.28;;;21.90;29.80;;;;;;5073749;28;20060;-61
2021/03/08 12:35:37;;;;;;;6.85;3.00;;;21.90;29.80;;;;;;5074082;28;20396;-60
2021/03/08 12:38:02;;;;;;;6.13;3.20;;;21.90;29.80;;;;;;5096734;28;20856;-60
2021/03/08 12:40:28;;;;;;;9.63;3.15;;;22.00;29.80;;;;;;5074040;28;20028;-60
2021/03/08 12:42:54;;;;;;;6.82;3.30;;;22.00;29.80;;;;;;5074015;28;20028;-61
2021/03/08 12:45:19;;;;;;;6.35;3.17;;;22.00;29.70;;;;;;5084681;28;20043;-60
2021/03/08 12:47:45;;;;;;;9.07;3.30;;;22.00;29.70;;;;;;5096360;28;20103;-61
2021/03/08 12:50:11;;;;;;;6.57;3.20;;;22.00;29.70;;;;;;5086882;28;20055;-60
2021/03/08 12:52:36;;;;;;;6.93;3.70;;;22.00;29.70;;;;;;5091727;28;20489;-61
2021/03/08 12:55:03;;;;;;;5.97;3.30;;;22.10;29.60;;;;;;5075179;28;20024;-61
2021/03/08 12:57:29;;;;;;;8.38;3.85;;;22.10;29.70;;;;;;5073510;28;20028;-60
2021/03/08 12:59:54;;;;;;;8.02;4.20;;;22.10;29.70;;;;;;5081969;28;20047;-61
2021/03/08 13:02:20;;;;;;;6.32;3.20;;;22.10;29.70;;;;;;5091989;28;20020;-61